Latest Weather Observations for Darwin Airport

IDD60901

Issued at 5:51 am CST Friday 30 January 2015 (issued every 10 minutes, with the page automatically refreshed every 10 minutes)

About weather observations | Map of Darwin area stations | Latest observations for Darwin area | Other Formats
Station Details ID: 014015 Name: DARWIN AIRPORT Lat: -12.42 Lon: 130.89 Height: 30.4 m
Data from the previous 72 hours. | See also: Recent months at Darwin Airport
Date/Time
CST
Tmp

°C
App
Tmp
°C
Dew
Point
°C
Rel
Hum
%
Delta-T

°C
Wind Press
QNH
hPa
Press
MSL
hPa
Rain
since
9 am
mm
Dir
 
Spd
km/h
Gust
km/h
Spd
kts
Gust
kts
30/05:30am 26.7 30.0 23.8 84 2.0 W 13 17 7 9 1006.1 - 7.0
30/05:00am 27.0 29.2 24.0 83 2.1 W 19 26 10 14 1006.2 - 7.0
30/04:30am 26.9 29.0 23.7 82 2.2 WNW 19 24 10 13 1006.5 - 7.0
30/04:00am 26.6 29.1 23.8 84 1.9 WNW 17 26 9 14 1006.7 - 7.0
30/03:30am 26.5 29.1 24.6 89 1.3 WNW 19 22 10 12 1006.9 - 7.0
30/03:00am 27.0 29.7 25.0 89 1.4 WNW 20 26 11 14 1006.8 1006.5 7.0
30/02:30am 27.4 30.1 24.8 86 1.8 NW 19 26 10 14 1007.0 - 7.0
30/02:00am 27.3 30.3 24.6 85 1.9 NNW 17 20 9 11 1007.3 - 7.0
30/01:30am 27.4 30.4 24.7 85 1.9 NNW 17 19 9 10 1008.0 - 7.0
30/01:00am 26.3 29.5 24.4 89 1.3 NNW 15 19 8 10 1008.2 - 7.0
30/12:30am 25.3 29.1 23.5 90 1.2 N 9 11 5 6 1008.5 - 7.0
30/12:00am 25.2 29.0 23.4 90 1.2 N 9 11 5 6 1009.0 1008.7 7.0
 
Date/Time
CST
Tmp

°C
App
Tmp
°C
Dew
Point
°C
Rel
Hum
%
Delta-T

°C
Wind Press
QNH
hPa
Press
MSL
hPa
Rain
since
9 am
mm
Dir
 
Spd
km/h
Gust
km/h
Spd
kts
Gust
kts
29/11:30pm 25.1 29.0 23.6 91 1.0 ENE 9 11 5 6 1008.9 - 7.0
29/11:00pm 25.1 29.4 23.6 91 1.0 ENE 7 7 4 4 1008.9 - 7.0
29/10:30pm 25.3 29.9 23.8 91 1.0 ENE 6 7 3 4 1008.7 - 7.0
29/10:00pm 25.2 29.4 23.1 88 1.4 NNE 6 7 3 4 1008.6 - 7.0
29/09:30pm 25.1 29.3 23.5 91 1.1 ENE 7 9 4 5 1008.5 - 7.0
29/09:00pm 25.0 29.8 23.5 91 1.0 E 4 9 2 5 1008.1 1007.8 7.0
29/08:30pm 25.0 29.2 23.5 91 1.0 ENE 7 11 4 6 1007.9 - 7.0
29/08:00pm 25.0 28.6 23.7 92 0.9 SE 11 15 6 8 1007.3 - 7.0
29/07:30pm 25.1 29.4 23.6 91 1.0 SE 7 11 4 6 1006.3 - 7.0
29/07:00pm 24.5 28.2 23.3 93 0.8 SSE 9 13 5 7 1006.2 - 7.0
29/06:41pm 23.9 25.9 22.9 94 0.7 SSE 17 24 9 13 1005.9 - 6.6
29/06:30pm 23.8 25.4 22.8 94 0.7 SSE 19 24 10 13 1005.9 - 4.8
29/06:12pm 24.1 25.1 22.8 92 0.9 SSE 22 32 12 17 1006.1 - 2.6
29/05:30pm 28.2 28.8 21.0 65 4.8 SW 19 28 10 15 1005.2 - 0.2
29/05:05pm 30.7 32.0 24.1 68 4.6 NW 24 30 13 16 1004.2 - 0.2
29/05:00pm 30.9 32.2 24.0 66 4.8 NW 24 32 13 17 1004.2 - 0.2
29/04:30pm 31.5 33.0 24.4 66 5.0 WNW 24 30 13 16 1003.8 - 0.2
29/04:00pm 31.9 33.6 23.4 60 5.9 WNW 20 26 11 14 1003.8 - 0.2
29/03:30pm 31.7 33.2 22.7 59 6.2 NW 19 26 10 14 1004.1 - 0.2
29/03:00pm 31.8 33.8 22.3 57 6.5 NW 15 19 8 10 1004.5 1004.2 0.2
29/02:30pm 32.3 32.6 20.7 50 7.8 WNW 20 24 11 13 1004.9 - 0.2
29/02:00pm 31.6 34.5 23.2 61 5.8 W 13 19 7 10 1005.0 - 0.2
29/01:30pm 31.3 32.5 21.4 55 6.7 WNW 17 24 9 13 1005.7 - 0.2
29/01:00pm 31.3 34.1 23.0 61 5.7 WNW 13 22 7 12 1006.2 - 0.2
29/12:30pm 31.0 33.4 23.7 65 5.1 WNW 17 26 9 14 1006.8 - 0.2
29/12:00pm 30.1 33.6 23.6 68 4.5 NNW 11 15 6 8 1007.1 1006.8 0.2
29/11:30am 30.2 33.6 23.4 67 4.7 NNW 11 17 6 9 1007.4 - 0.2
29/11:00am 30.1 33.1 23.3 67 4.7 N 13 15 7 8 1007.5 - 0.2
29/10:30am 29.7 33.7 23.8 70 4.1 NNW 9 15 5 8 1007.8 - 0.2
29/10:00am 29.4 32.8 23.3 69 4.2 N 11 13 6 7 1007.8 - 0.2
29/09:30am 29.2 33.0 24.0 73 3.6 NNW 11 17 6 9 1007.7 - 0.2
29/09:00am 28.4 31.9 24.2 78 2.9 NNW 13 17 7 9 1007.3 1007.0 30.2
29/08:30am 27.1 31.6 23.6 81 2.4 NNW 6 7 3 4 1007.3 - 30.2
29/07:30am 24.7 29.8 23.4 92 0.9 WNW 2 7 1 4 1006.5 - 30.2
29/07:00am 24.9 27.8 23.1 90 1.2 NW 13 13 7 7 1006.0 - 30.2
29/06:30am 24.6 28.6 23.1 91 1.0 NNW 7 9 4 5 1005.6 - 30.2
29/06:00am 24.5 28.8 23.3 93 0.8 E 6 6 3 3 1005.9 1005.6 30.2
29/05:30am 24.4 28.3 22.9 91 1.0 E 7 9 4 5 1005.8 - 30.2
29/05:00am 24.4 27.1 22.9 91 1.0 ESE 13 15 7 8 1005.9 - 30.2
29/04:30am 24.4 27.6 23.1 92 0.9 ESE 11 13 6 7 1006.1 - 30.2
29/04:00am 24.4 26.6 23.2 93 0.8 E 17 20 9 11 1006.2 - 30.2
29/03:30am 24.4 26.7 23.4 94 0.7 ESE 17 20 9 11 1006.2 - 30.2
29/03:00am 24.5 28.3 23.5 94 0.7 E 9 13 5 7 1006.1 1005.8 30.2
29/02:30am 24.6 27.6 23.3 92 0.9 ESE 13 15 7 8 1006.5 - 30.2
29/02:00am 24.4 27.4 23.4 94 0.7 ESE 13 15 7 8 1006.8 - 30.2
29/01:30am 24.2 27.9 23.3 95 0.6 E 9 9 5 5 1006.8 - 30.2
29/01:00am 24.1 27.8 23.2 95 0.6 NE 9 9 5 5 1007.2 - 30.2
29/12:30am 23.9 27.4 22.9 94 0.7 NE 9 13 5 7 1007.3 - 30.2
29/12:00am 23.9 26.5 22.7 93 0.8 ENE 13 15 7 8 1007.6 1007.3 30.2
 
Date/Time
CST
Tmp

°C
App
Tmp
°C
Dew
Point
°C
Rel
Hum
%
Delta-T

°C
Wind Press
QNH
hPa
Press
MSL
hPa
Rain
since
9 am
mm
Dir
 
Spd
km/h
Gust
km/h
Spd
kts
Gust
kts
28/11:30pm 23.9 27.2 22.6 92 0.9 ENE 9 15 5 8 1007.9 - 30.2
28/11:00pm 23.9 27.2 22.6 92 0.9 E 9 13 5 7 1008.1 - 30.2
28/10:30pm 24.0 27.4 22.7 92 0.9 ENE 9 11 5 6 1008.2 - 30.2
28/10:16pm 24.2 27.1 22.4 90 1.2 E 11 13 6 7 1008.1 - 30.2
28/10:00pm 24.4 27.1 22.2 87 1.5 E 11 15 6 8 1008.2 - 30.2
28/09:37pm 24.6 27.0 23.0 91 1.1 ESE 15 20 8 11 1007.7 - 30.2
28/09:30pm 24.8 27.3 23.2 91 1.1 ESE 15 19 8 10 1007.6 - 30.2
28/09:00pm 25.1 29.2 23.9 93 0.8 N 9 15 5 8 1006.8 1006.5 30.2
28/08:30pm 25.1 27.3 23.3 90 1.2 N 17 20 9 11 1006.7 - 30.2
28/08:11pm 24.5 27.4 23.2 92 0.9 N 13 17 7 9 1006.6 - 30.0
28/08:00pm 24.4 27.7 23.2 93 0.8 N 11 15 6 8 1006.4 - 29.4
28/07:58pm 24.3 27.5 23.0 92 0.9 N 11 15 6 8 1006.3 - 29.0
28/07:30pm 24.3 26.2 22.1 87 1.5 NNW 15 19 8 10 1005.8 - 28.6
28/07:00pm 23.5 26.1 22.0 91 1.0 NNE 11 15 6 8 1005.0 - 28.6
28/06:30pm 22.8 24.1 21.7 93 0.7 ENE 17 20 9 11 1004.9 - 28.6
28/06:24pm 22.7 24.0 21.6 93 0.7 ENE 17 20 9 11 1004.9 - 28.6
28/06:00pm 22.7 24.0 22.3 98 0.3 ENE 19 24 10 13 1005.3 1005.0 28.0
28/05:50pm 22.9 24.0 22.3 96 0.4 E 20 26 11 14 1005.2 - 26.6
28/05:30pm 22.6 22.4 22.0 96 0.4 E 26 32 14 17 1005.3 - 20.6
28/05:16pm 23.3 24.7 22.6 96 0.5 E 19 28 10 15 1004.5 - 7.0
28/05:05pm 24.0 23.1 22.8 93 0.8 NE 32 39 17 21 1004.1 - 0.2
28/05:00pm 24.3 23.3 22.7 91 1.1 ENE 32 39 17 21 1003.9 - 0.0
28/04:57pm 25.0 24.5 22.2 84 1.9 ENE 28 37 15 20 1003.9 - 0.0
28/04:47pm 25.6 27.0 21.9 80 2.5 NE 17 20 9 11 1003.9 - 0.0
28/04:30pm 30.6 32.6 25.1 72 3.9 NNW 24 30 13 16 1003.4 - 0.0
28/04:00pm 31.6 33.2 25.1 68 4.6 WNW 26 32 14 17 1002.6 - 0.0
28/03:30pm 31.7 33.2 24.9 67 4.8 WNW 26 32 14 17 1002.8 - 0.0
28/03:00pm 31.5 33.5 24.5 66 4.9 WNW 22 30 12 16 1003.2 1002.9 0.0
28/02:30pm 32.0 35.0 25.2 67 4.8 NW 19 24 10 13 1003.7 - 0.0
28/02:00pm 31.4 33.7 24.4 66 4.9 WNW 20 26 11 14 1004.3 - 0.0
28/01:30pm 31.3 34.1 25.2 70 4.3 WNW 20 26 11 14 1004.6 - 0.0
28/01:00pm 30.6 33.2 24.0 68 4.6 WNW 17 26 9 14 1004.8 - 0.0
28/12:30pm 30.3 33.1 24.9 73 3.8 NW 19 26 10 14 1005.5 - 0.0
28/12:00pm 30.3 33.0 25.1 73 3.7 NW 20 28 11 15 1005.8 1005.5 0.0
28/11:30am 31.0 33.7 24.7 69 4.4 WNW 19 24 10 13 1005.9 - 0.0
28/11:00am 30.8 33.9 25.4 73 3.8 WNW 19 24 10 13 1006.0 - 0.0
28/10:30am 30.0 33.5 24.9 74 3.6 WNW 15 19 8 10 1006.4 - 0.0
28/10:00am 29.7 33.7 24.4 73 3.7 WNW 11 20 6 11 1006.4 - 0.0
28/09:30am 29.0 33.6 24.1 75 3.4 SSW 7 9 4 5 1006.3 - 0.0
28/09:00am 28.3 32.9 24.1 78 2.9 SSW 7 11 4 6 1006.3 1006.0 11.6
28/08:30am 27.6 32.3 25.0 86 1.8 SSW 9 11 5 6 1006.0 - 11.6
28/08:00am 26.8 31.6 25.1 90 1.2 SSW 9 11 5 6 1005.8 - 11.6
28/07:30am 26.1 31.2 25.0 94 0.8 SSW 7 9 4 5 1005.3 - 11.6
28/07:00am 24.8 29.7 24.4 98 0.3 SSW 6 7 3 4 1004.8 - 11.6
28/06:30am 24.7 30.7 24.3 98 0.3 CALM 0 4 0 2 1004.6 - 11.6
28/06:00am 25.0 29.8 24.4 96 0.4 SSW 7 9 4 5 1004.4 1004.1 11.6
28/05:30am 25.2 30.2 24.5 96 0.5 SSW 6 7 3 4 1004.3 - 11.6
28/05:00am 25.3 30.4 24.6 96 0.5 SSW 6 7 3 4 1004.0 - 11.6
28/04:30am 25.7 30.6 24.7 94 0.7 SSW 7 7 4 4 1004.1 - 11.6
28/04:00am 26.1 30.7 24.7 92 1.0 WSW 9 11 5 6 1004.5 - 11.6
28/03:30am 26.0 30.7 24.9 94 0.8 SW 9 13 5 7 1004.5 - 11.6
28/03:00am 25.9 32.5 25.2 96 0.5 CALM 0 0 0 0 1004.9 1004.6 11.6
28/02:30am 26.0 32.5 25.0 94 0.7 CALM 0 0 0 0 1005.1 - 11.6
28/02:00am 26.5 32.3 25.1 92 1.0 SW 4 9 2 5 1005.5 - 11.6
28/01:30am 26.5 31.3 25.1 92 1.0 WSW 9 11 5 6 1006.1 - 11.6
28/01:00am 26.6 31.5 25.2 92 1.0 SSW 9 9 5 5 1006.3 - 11.6
28/12:30am 26.6 32.0 25.5 94 0.8 SW 7 11 4 6 1007.3 - 11.6
28/12:00am 26.8 31.3 25.2 91 1.1 SW 11 11 6 6 1007.5 1007.2 11.6
 
Date/Time
CST
Tmp

°C
App
Tmp
°C
Dew
Point
°C
Rel
Hum
%
Delta-T

°C
Wind Press
QNH
hPa
Press
MSL
hPa
Rain
since
9 am
mm
Dir
 
Spd
km/h
Gust
km/h
Spd
kts
Gust
kts
27/11:30pm 26.8 31.2 25.1 90 1.2 SW 11 13 6 7 1007.6 - 11.6
27/11:00pm 26.7 30.9 24.7 89 1.4 SW 11 15 6 8 1007.7 - 11.6
27/10:30pm 26.8 30.4 24.3 86 1.7 WSW 13 15 7 8 1007.6 - 11.6
27/10:00pm 26.9 30.3 24.0 84 2.0 W 13 15 7 8 1007.6 - 11.6
27/09:30pm 26.9 30.1 23.7 82 2.2 WSW 13 15 7 8 1007.4 - 11.6
27/09:00pm 26.9 30.5 23.7 82 2.2 WSW 11 15 6 8 1007.3 1007.0 11.6
27/08:30pm 26.8 30.2 24.1 85 1.9 W 13 15 7 8 1006.9 - 11.6
27/08:00pm 26.9 30.7 24.0 84 2.0 W 11 15 6 8 1006.3 - 11.6
27/07:30pm 27.2 30.5 23.9 82 2.3 W 13 17 7 9 1005.4 - 11.6
27/07:00pm 27.4 30.5 24.1 82 2.3 WSW 15 17 8 9 1004.8 - 11.6
27/06:30pm 27.7 29.5 23.3 77 3.0 W 19 26 10 14 1004.9 - 11.6
27/06:00pm 27.4 30.0 22.7 75 3.2 W 13 19 7 10 1004.6 1004.3 11.6
27/05:30pm 27.2 29.7 22.5 75 3.2 W 13 15 7 8 1004.1 - 11.6
27/05:00pm 26.7 29.6 23.2 81 2.4 W 13 17 7 9 1004.2 - 11.6
27/04:30pm 26.5 29.3 23.0 81 2.4 W 13 19 7 10 1004.5 - 11.6
27/04:00pm 27.1 29.6 22.4 75 3.2 W 13 15 7 8 1004.9 - 11.6
27/03:30pm 27.1 28.9 22.5 76 3.1 WSW 17 22 9 12 1005.0 - 11.6
27/03:00pm 25.7 28.0 22.7 83 2.0 SW 15 20 8 11 1005.0 1004.7 11.6
27/02:30pm 25.3 27.9 22.6 85 1.8 S 13 17 7 9 1005.4 - 11.6
27/02:00pm 24.0 26.5 22.5 91 1.0 SW 13 15 7 8 1005.8 - 11.6
27/01:30pm 23.3 23.7 22.4 95 0.6 S 24 32 13 17 1006.6 - 11.6
27/01:00pm 23.2 22.1 22.5 96 0.5 SSW 32 39 17 21 1007.6 - 7.2
27/12:30pm 24.0 24.3 23.0 94 0.7 SSW 26 33 14 18 1008.2 - 1.0
27/12:28pm 24.1 24.0 22.9 93 0.8 SSW 28 33 15 18 1008.2 - 0.4
27/12:00pm 24.6 24.3 23.3 92 0.9 S 30 44 16 24 1007.8 1007.5 0.4
27/11:47am 25.0 24.6 23.7 92 0.9 S 32 43 17 23 1007.6 - 0.2
27/11:38am 25.7 24.9 23.4 87 1.6 S 33 48 18 26 1007.8 - 0.0
27/11:30am 26.1 25.5 23.3 84 1.9 S 32 48 17 26 1008.1 - 0.0
27/11:00am 30.7 33.4 24.1 68 4.6 WSW 17 28 9 15 1007.7 - 0.0
27/10:30am 31.2 33.9 24.8 69 4.5 WSW 19 26 10 14 1007.9 - 0.0
27/10:00am 30.3 33.7 25.2 74 3.6 WSW 17 22 9 12 1008.2 - 0.0
27/09:30am 29.6 33.1 25.5 78 2.9 WSW 17 24 9 13 1008.6 - 0.0
27/09:00am 28.8 33.1 26.1 85 1.9 SW 15 20 8 11 1008.4 1008.1 5.8
27/08:30am 28.0 32.4 25.7 87 1.6 SSW 13 17 7 9 1008.4 - 5.8
27/08:00am 28.1 32.8 25.6 86 1.8 SW 11 15 6 8 1008.3 - 5.8
27/07:30am 27.5 32.1 25.4 88 1.5 WSW 11 13 6 7 1007.9 - 5.8
27/07:00am 27.4 32.0 25.3 88 1.5 W 11 15 6 8 1007.6 - 5.8
27/06:30am 27.4 32.2 25.1 87 1.6 W 9 9 5 5 1007.1 - 5.8
27/06:00am 27.5 31.5 25.1 87 1.7 W 13 13 7 7 1007.0 1006.7 5.8

Latest Capital City Observations: Canberra | Sydney | Melbourne | Brisbane | Adelaide | Perth | Hobart | Darwin

Other Formats:

Comma delimited format used in spreadsheet applications
http://www.bom.gov.au/fwo/IDD60901/IDD60901.94120.axf

JavaScript Object Notation format (JSON) in row-major order
http://www.bom.gov.au/fwo/IDD60901/IDD60901.94120.json